sensor_id;sensor_type;location;lat;lon;timestamp;pressure;altitude;pressure_sealevel;temperature
7830;BMP180;3960;51.86894000;5.39848000;2023-03-07T00:02:23;99876.44;;;4.84
7830;BMP180;3960;51.86894000;5.39848000;2023-03-07T00:04:49;99890.59;;;4.95
7830;BMP180;3960;51.86894000;5.39848000;2023-03-07T00:07:14;99889.03;;;4.97
7830;BMP180;3960;51.86894000;5.39848000;2023-03-07T00:09:39;99852.34;;;4.70
7830;BMP180;3960;51.86894000;5.39848000;2023-03-07T00:12:06;99874.13;;;4.86
7830;BMP180;3960;51.86894000;5.39848000;2023-03-07T00:14:31;99871.06;;;4.80
7830;BMP180;3960;51.86894000;5.39848000;2023-03-07T00:16:57;99882.53;;;4.98
7830;BMP180;3960;51.86894000;5.39848000;2023-03-07T00:19:22;99888.66;;;4.99
7830;BMP180;3960;51.86894000;5.39848000;2023-03-07T00:21:47;99853.44;;;4.79
7830;BMP180;3960;51.86894000;5.39848000;2023-03-07T00:24:13;99822.50;;;4.57
7830;BMP180;3960;51.86894000;5.39848000;2023-03-07T00:26:38;99871.03;;;4.91
7830;BMP180;3960;51.86894000;5.39848000;2023-03-07T00:29:06;99869.16;;;4.88
7830;BMP180;3960;51.86894000;5.39848000;2023-03-07T00:31:31;99872.56;;;4.92
7830;BMP180;3960;51.86894000;5.39848000;2023-03-07T00:33:57;99836.63;;;4.68
7830;BMP180;3960;51.86894000;5.39848000;2023-03-07T00:36:23;99827.44;;;4.66
7830;BMP180;3960;51.86894000;5.39848000;2023-03-07T00:38:48;99873.72;;;4.94
7830;BMP180;3960;51.86894000;5.39848000;2023-03-07T00:41:17;99874.09;;;5.00
7830;BMP180;3960;51.86894000;5.39848000;2023-03-07T00:43:43;99861.84;;;4.92
7830;BMP180;3960;51.86894000;5.39848000;2023-03-07T00:46:11;99873.69;;;4.98
7830;BMP180;3960;51.86894000;5.39848000;2023-03-07T00:48:38;99877.91;;;4.99
7830;BMP180;3960;51.86894000;5.39848000;2023-03-07T00:51:05;99876.75;;;5.06
7830;BMP180;3960;51.86894000;5.39848000;2023-03-07T00:53:30;99850.34;;;4.95
7830;BMP180;3960;51.86894000;5.39848000;2023-03-07T00:56:03;99874.06;;;5.06
7830;BMP180;3960;51.86894000;5.39848000;2023-03-07T00:58:31;99864.09;;;5.00
7830;BMP180;3960;51.86894000;5.39848000;2023-03-07T01:00:57;99872.94;;;5.01
7830;BMP180;3960;51.86894000;5.39848000;2023-03-07T01:03:23;99846.19;;;4.80
7830;BMP180;3960;51.86894000;5.39848000;2023-03-07T01:05:49;99850.00;;;4.86
7830;BMP180;3960;51.86894000;5.39848000;2023-03-07T01:08:15;99849.97;;;4.89
7830;BMP180;3960;51.86894000;5.39848000;2023-03-07T01:10:40;99859.16;;;4.95
7830;BMP180;3960;51.86894000;5.39848000;2023-03-07T01:13:06;99861.44;;;4.97
7830;BMP180;3960;51.86894000;5.39848000;2023-03-07T01:15:32;99796.09;;;4.59
7830;BMP180;3960;51.86894000;5.39848000;2023-03-07T01:17:57;99787.28;;;4.48
7830;BMP180;3960;51.86894000;5.39848000;2023-03-07T01:20:23;99858.38;;;4.98
7830;BMP180;3960;51.86894000;5.39848000;2023-03-07T01:22:48;99791.47;;;4.56
7830;BMP180;3960;51.86894000;5.39848000;2023-03-07T01:25:14;99855.69;;;4.98
7830;BMP180;3960;51.86894000;5.39848000;2023-03-07T01:27:39;99823.59;;;4.77
7830;BMP180;3960;51.86894000;5.39848000;2023-03-07T01:30:06;99823.94;;;4.83
7830;BMP180;3960;51.86894000;5.39848000;2023-03-07T01:32:31;99831.19;;;4.89
7830;BMP180;3960;51.86894000;5.39848000;2023-03-07T01:34:57;99838.50;;;4.89
7830;BMP180;3960;51.86894000;5.39848000;2023-03-07T01:37:22;99830.81;;;4.91
7830;BMP180;3960;51.86894000;5.39848000;2023-03-07T01:39:52;99773.09;;;4.58
7830;BMP180;3960;51.86894000;5.39848000;2023-03-07T01:42:19;99832.31;;;4.95
7830;BMP180;3960;51.86894000;5.39848000;2023-03-07T01:45:04;99807.84;;;4.83
7830;BMP180;3960;51.86894000;5.39848000;2023-03-07T01:47:30;99823.88;;;4.93
7830;BMP180;3960;51.86894000;5.39848000;2023-03-07T01:49:57;99809.75;;;4.89
7830;BMP180;3960;51.86894000;5.39848000;2023-03-07T01:52:29;99737.91;;;4.42
7830;BMP180;3960;51.86894000;5.39848000;2023-03-07T01:55:02;99814.34;;;4.92
7830;BMP180;3960;51.86894000;5.39848000;2023-03-07T01:57:35;99802.09;;;4.84
7830;BMP180;3960;51.86894000;5.39848000;2023-03-07T02:00:04;99778.03;;;4.67
7830;BMP180;3960;51.86894000;5.39848000;2023-03-07T02:02:33;99821.59;;;4.95
7830;BMP180;3960;51.86894000;5.39848000;2023-03-07T02:07:38;99783.34;;;4.81
7830;BMP180;3960;51.86894000;5.39848000;2023-03-07T02:10:05;99782.56;;;4.80
7830;BMP180;3960;51.86894000;5.39848000;2023-03-07T02:12:31;99771.09;;;4.76
7830;BMP180;3960;51.86894000;5.39848000;2023-03-07T02:14:57;99788.25;;;4.93
7830;BMP180;3960;51.86894000;5.39848000;2023-03-07T02:17:23;99777.16;;;4.87
7830;BMP180;3960;51.86894000;5.39848000;2023-03-07T02:20:00;99789.41;;;4.92
7830;BMP180;3960;51.86894000;5.39848000;2023-03-07T02:22:27;99800.13;;;4.95
7830;BMP180;3960;51.86894000;5.39848000;2023-03-07T02:25:15;99789.41;;;4.95
7830;BMP180;3960;51.86894000;5.39848000;2023-03-07T02:27:42;99792.47;;;4.94
7830;BMP180;3960;51.86894000;5.39848000;2023-03-07T02:30:09;99726.00;;;4.57
7830;BMP180;3960;51.86894000;5.39848000;2023-03-07T02:32:34;99787.09;;;4.97
7830;BMP180;3960;51.86894000;5.39848000;2023-03-07T02:35:00;99790.94;;;4.96
7830;BMP180;3960;51.86894000;5.39848000;2023-03-07T02:37:29;99780.63;;;4.91
7830;BMP180;3960;51.86894000;5.39848000;2023-03-07T02:39:57;99770.63;;;4.92
7830;BMP180;3960;51.86894000;5.39848000;2023-03-07T02:42:28;99778.25;;;5.00
7830;BMP180;3960;51.86894000;5.39848000;2023-03-07T02:44:56;99771.72;;;5.01
7830;BMP180;3960;51.86894000;5.39848000;2023-03-07T02:47:22;99719.06;;;4.67
7830;BMP180;3960;51.86894000;5.39848000;2023-03-07T02:49:47;99746.16;;;4.83
7830;BMP180;3960;51.86894000;5.39848000;2023-03-07T02:52:12;99768.66;;;4.99
7830;BMP180;3960;51.86894000;5.39848000;2023-03-07T02:54:38;99729.34;;;4.75
7830;BMP180;3960;51.86894000;5.39848000;2023-03-07T02:57:03;99707.97;;;4.61
7830;BMP180;3960;51.86894000;5.39848000;2023-03-07T02:59:28;99773.25;;;5.05
7830;BMP180;3960;51.86894000;5.39848000;2023-03-07T03:01:54;99771.72;;;5.04
7830;BMP180;3960;51.86894000;5.39848000;2023-03-07T03:04:20;99734.28;;;4.80
7830;BMP180;3960;51.86894000;5.39848000;2023-03-07T03:06:45;99736.53;;;4.92
7830;BMP180;3960;51.86894000;5.39848000;2023-03-07T03:09:11;99767.47;;;5.07
7830;BMP180;3960;51.86894000;5.39848000;2023-03-07T03:11:36;99766.72;;;5.06
7830;BMP180;3960;51.86894000;5.39848000;2023-03-07T03:14:01;99695.34;;;4.58
7830;BMP180;3960;51.86894000;5.39848000;2023-03-07T03:16:27;99748.75;;;4.97
7830;BMP180;3960;51.86894000;5.39848000;2023-03-07T03:18:52;99751.41;;;5.03
7830;BMP180;3960;51.86894000;5.39848000;2023-03-07T03:21:17;99740.72;;;4.93
7830;BMP180;3960;51.86894000;5.39848000;2023-03-07T03:23:42;99715.53;;;4.80
7830;BMP180;3960;51.86894000;5.39848000;2023-03-07T03:26:08;99738.81;;;4.97
7830;BMP180;3960;51.86894000;5.39848000;2023-03-07T03:28:36;99751.78;;;5.05
7830;BMP180;3960;51.86894000;5.39848000;2023-03-07T03:31:10;99756.31;;;5.12
7830;BMP180;3960;51.86894000;5.39848000;2023-03-07T03:33:36;99753.72;;;5.05
7830;BMP180;3960;51.86894000;5.39848000;2023-03-07T03:36:07;99758.66;;;5.10
7830;BMP180;3960;51.86894000;5.39848000;2023-03-07T03:38:33;99741.09;;;4.99
7830;BMP180;3960;51.86894000;5.39848000;2023-03-07T03:41:02;99754.06;;;5.07
7830;BMP180;3960;51.86894000;5.39848000;2023-03-07T03:43:28;99724.34;;;4.81
7830;BMP180;3960;51.86894000;5.39848000;2023-03-07T03:45:56;99759.81;;;5.09
7830;BMP180;3960;51.86894000;5.39848000;2023-03-07T03:48:22;99767.47;;;5.07
7830;BMP180;3960;51.86894000;5.39848000;2023-03-07T03:50:48;99749.56;;;4.90
7830;BMP180;3960;51.86894000;5.39848000;2023-03-07T03:53:13;99746.16;;;4.83
7830;BMP180;3960;51.86894000;5.39848000;2023-03-07T03:55:38;99746.22;;;4.76
7830;BMP180;3960;51.86894000;5.39848000;2023-03-07T03:58:03;99698.84;;;4.45
7830;BMP180;3960;51.86894000;5.39848000;2023-03-07T04:00:29;99714.94;;;4.45
7830;BMP180;3960;51.86894000;5.39848000;2023-03-07T04:02:55;99743.56;;;4.69
7830;BMP180;3960;51.86894000;5.39848000;2023-03-07T04:05:20;99747.00;;;4.69
7830;BMP180;3960;51.86894000;5.39848000;2023-03-07T04:07:46;99722.50;;;4.60
7830;BMP180;3960;51.86894000;5.39848000;2023-03-07T04:10:12;99740.09;;;4.72
7830;BMP180;3960;51.86894000;5.39848000;2023-03-07T04:12:37;99737.03;;;4.70
7830;BMP180;3960;51.86894000;5.39848000;2023-03-07T04:15:04;99704.22;;;4.45
7830;BMP180;3960;51.86894000;5.39848000;2023-03-07T04:17:29;99735.16;;;4.63
7830;BMP180;3960;51.86894000;5.39848000;2023-03-07T04:19:54;99682.06;;;4.34
7830;BMP180;3960;51.86894000;5.39848000;2023-03-07T04:22:20;99737.41;;;4.68
7830;BMP180;3960;51.86894000;5.39848000;2023-03-07T04:24:45;99709.91;;;4.57
7830;BMP180;3960;51.86894000;5.39848000;2023-03-07T04:27:10;99686.59;;;4.44
7830;BMP180;3960;51.86894000;5.39848000;2023-03-07T04:29:36;99726.72;;;4.65
7830;BMP180;3960;51.86894000;5.39848000;2023-03-07T04:32:01;99678.63;;;4.33
7830;BMP180;3960;51.86894000;5.39848000;2023-03-07T04:34:26;99657.25;;;4.16
7830;BMP180;3960;51.86894000;5.39848000;2023-03-07T04:36:52;99682.06;;;4.34
7830;BMP180;3960;51.86894000;5.39848000;2023-03-07T04:39:17;99694.66;;;4.40
7830;BMP180;3960;51.86894000;5.39848000;2023-03-07T04:41:42;99701.91;;;4.50
7830;BMP180;3960;51.86894000;5.39848000;2023-03-07T04:44:08;99672.50;;;4.33
7830;BMP180;3960;51.86894000;5.39848000;2023-03-07T04:46:33;99717.56;;;4.55
7830;BMP180;3960;51.86894000;5.39848000;2023-03-07T04:48:58;99644.66;;;4.10
7830;BMP180;3960;51.86894000;5.39848000;2023-03-07T04:51:24;99688.53;;;4.43
7830;BMP180;3960;51.86894000;5.39848000;2023-03-07T04:53:49;99651.50;;;4.14
7830;BMP180;3960;51.86894000;5.39848000;2023-03-07T04:56:14;99704.19;;;4.52
7830;BMP180;3960;51.86894000;5.39848000;2023-03-07T04:58:43;99637.75;;;4.12
7830;BMP180;3960;51.86894000;5.39848000;2023-03-07T05:01:09;99688.13;;;4.45
7830;BMP180;3960;51.86894000;5.39848000;2023-03-07T05:03:35;99700.38;;;4.49
7830;BMP180;3960;51.86894000;5.39848000;2023-03-07T05:06:02;99702.28;;;4.49
7830;BMP180;3960;51.86894000;5.39848000;2023-03-07T05:08:29;99704.59;;;4.47
7830;BMP180;3960;51.86894000;5.39848000;2023-03-07T05:10:55;99654.19;;;4.18
7830;BMP180;3960;51.86894000;5.39848000;2023-03-07T05:13:20;99633.94;;;4.03
7830;BMP180;3960;51.86894000;5.39848000;2023-03-07T05:15:53;99647.72;;;4.08
7830;BMP180;3960;51.86894000;5.39848000;2023-03-07T05:18:19;99652.66;;;4.17
7830;BMP180;3960;51.86894000;5.39848000;2023-03-07T05:20:44;99660.69;;;4.20
7830;BMP180;3960;51.86894000;5.39848000;2023-03-07T05:23:10;99668.69;;;4.24
7830;BMP180;3960;51.86894000;5.39848000;2023-03-07T05:25:35;99677.88;;;4.26
7830;BMP180;3960;51.86894000;5.39848000;2023-03-07T05:28:00;99659.94;;;4.16
7830;BMP180;3960;51.86894000;5.39848000;2023-03-07T05:30:26;99621.00;;;3.87
7830;BMP180;3960;51.86894000;5.39848000;2023-03-07T05:32:51;99680.94;;;4.25
7830;BMP180;3960;51.86894000;5.39848000;2023-03-07T05:35:17;99685.50;;;4.31
7830;BMP180;3960;51.86894000;5.39848000;2023-03-07T05:37:42;99667.19;;;4.16
7830;BMP180;3960;51.86894000;5.39848000;2023-03-07T05:40:08;99705.06;;;4.28
7830;BMP180;3960;51.86894000;5.39848000;2023-03-07T05:42:34;99701.59;;;4.31
7830;BMP180;3960;51.86894000;5.39848000;2023-03-07T05:45:00;99658.06;;;3.99
7830;BMP180;3960;51.86894000;5.39848000;2023-03-07T05:47:25;99675.28;;;3.98
7830;BMP180;3960;51.86894000;5.39848000;2023-03-07T05:49:50;99692.84;;;4.13
7830;BMP180;3960;51.86894000;5.39848000;2023-03-07T05:52:16;99677.22;;;3.98
7830;BMP180;3960;51.86894000;5.39848000;2023-03-07T05:54:41;99689.06;;;4.04
7830;BMP180;3960;51.86894000;5.39848000;2023-03-07T05:57:06;99668.81;;;3.89
7830;BMP180;3960;51.86894000;5.39848000;2023-03-07T05:59:32;99679.16;;;3.97
7830;BMP180;3960;51.86894000;5.39848000;2023-03-07T06:01:57;99702.84;;;4.06
7830;BMP180;3960;51.86894000;5.39848000;2023-03-07T06:04:22;99685.66;;;3.93
7830;BMP180;3960;51.86894000;5.39848000;2023-03-07T06:06:47;99648.22;;;3.68
7830;BMP180;3960;51.86894000;5.39848000;2023-03-07T06:09:13;99693.66;;;4.00
7830;BMP180;3960;51.86894000;5.39848000;2023-03-07T06:11:38;99673.44;;;3.81
7830;BMP180;3960;51.86894000;5.39848000;2023-03-07T06:14:03;99686.41;;;3.90
7830;BMP180;3960;51.86894000;5.39848000;2023-03-07T06:16:32;99697.91;;;3.94
7830;BMP180;3960;51.86894000;5.39848000;2023-03-07T06:18:59;99691.03;;;3.86
7830;BMP180;3960;51.86894000;5.39848000;2023-03-07T06:21:27;99668.88;;;3.71
7830;BMP180;3960;51.86894000;5.39848000;2023-03-07T06:24:05;99635.66;;;3.38
7830;BMP180;3960;51.86894000;5.39848000;2023-03-07T06:26:53;99723.16;;;3.93
7830;BMP180;3960;51.86894000;5.39848000;2023-03-07T06:29:24;99614.69;;;3.08
7830;BMP180;3960;51.86894000;5.39848000;2023-03-07T06:31:49;99658.22;;;3.33
7830;BMP180;3960;51.86894000;5.39848000;2023-03-07T06:34:31;99698.34;;;3.51
7830;BMP180;3960;51.86894000;5.39848000;2023-03-07T06:36:59;99623.44;;;2.91
7830;BMP180;3960;51.86894000;5.39848000;2023-03-07T06:39:32;99733.13;;;3.58
7830;BMP180;3960;51.86894000;5.39848000;2023-03-07T06:42:00;99682.28;;;3.12
7830;BMP180;3960;51.86894000;5.39848000;2023-03-07T06:44:25;99613.88;;;2.63
7830;BMP180;3960;51.86894000;5.39848000;2023-03-07T06:46:54;99672.72;;;2.94
7830;BMP180;3960;51.86894000;5.39848000;2023-03-07T06:49:19;99652.84;;;2.78
7830;BMP180;3960;51.86894000;5.39848000;2023-03-07T06:51:45;99637.94;;;2.70
7830;BMP180;3960;51.86894000;5.39848000;2023-03-07T06:54:10;99688.41;;;2.95
7830;BMP180;3960;51.86894000;5.39848000;2023-03-07T06:56:35;99702.91;;;2.98
7830;BMP180;3960;51.86894000;5.39848000;2023-03-07T06:59:01;99748.03;;;3.20
7830;BMP180;3960;51.86894000;5.39848000;2023-03-07T07:01:26;99744.56;;;3.20
7830;BMP180;3960;51.86894000;5.39848000;2023-03-07T07:03:52;99658.53;;;2.55
7830;BMP180;3960;51.86894000;5.39848000;2023-03-07T07:06:17;99700.97;;;2.81
7830;BMP180;3960;51.86894000;5.39848000;2023-03-07T07:08:42;99691.00;;;2.68
7830;BMP180;3960;51.86894000;5.39848000;2023-03-07T07:11:08;99711.66;;;2.85
7830;BMP180;3960;51.86894000;5.39848000;2023-03-07T07:13:33;99682.97;;;2.57
7830;BMP180;3960;51.86894000;5.39848000;2023-03-07T07:16:04;99713.13;;;2.65
7830;BMP180;3960;51.86894000;5.39848000;2023-03-07T07:18:30;99661.91;;;2.31
7830;BMP180;3960;51.86894000;5.39848000;2023-03-07T07:20:58;99669.16;;;2.31
7830;BMP180;3960;51.86894000;5.39848000;2023-03-07T07:23:28;99711.19;;;2.51
7830;BMP180;3960;51.86894000;5.39848000;2023-03-07T07:25:53;99714.28;;;2.53
7830;BMP180;3960;51.86894000;5.39848000;2023-03-07T07:28:18;99693.22;;;2.34
7830;BMP180;3960;51.86894000;5.39848000;2023-03-07T07:30:44;99751.38;;;2.72
7830;BMP180;3960;51.86894000;5.39848000;2023-03-07T07:33:09;99650.75;;;2.05
7830;BMP180;3960;51.86894000;5.39848000;2023-03-07T07:35:37;99738.34;;;2.60
7830;BMP180;3960;51.86894000;5.39848000;2023-03-07T07:38:03;99651.88;;;2.01
7830;BMP180;3960;51.86894000;5.39848000;2023-03-07T07:40:29;99642.72;;;2.02
7830;BMP180;3960;51.86894000;5.39848000;2023-03-07T07:42:54;99661.81;;;2.11
7830;BMP180;3960;51.86894000;5.39848000;2023-03-07T07:45:21;99769.72;;;2.81
7830;BMP180;3960;51.86894000;5.39848000;2023-03-07T07:47:49;99772.38;;;2.81
7830;BMP180;3960;51.86894000;5.39848000;2023-03-07T07:50:16;99675.97;;;2.18
7830;BMP180;3960;51.86894000;5.39848000;2023-03-07T07:52:42;99706.91;;;2.33
7830;BMP180;3960;51.86894000;5.39848000;2023-03-07T07:55:08;99778.88;;;2.83
7830;BMP180;3960;51.86894000;5.39848000;2023-03-07T07:57:34;99739.84;;;2.58
7830;BMP180;3960;51.86894000;5.39848000;2023-03-07T08:00:00;99708.09;;;2.39
7830;BMP180;3960;51.86894000;5.39848000;2023-03-07T08:02:33;99692.38;;;2.20
7830;BMP180;3960;51.86894000;5.39848000;2023-03-07T08:04:59;99776.97;;;2.73
7830;BMP180;3960;51.86894000;5.39848000;2023-03-07T08:07:24;99744.78;;;2.49
7830;BMP180;3960;51.86894000;5.39848000;2023-03-07T08:09:49;99792.59;;;2.75
7830;BMP180;3960;51.86894000;5.39848000;2023-03-07T08:12:15;99790.31;;;2.73
7830;BMP180;3960;51.86894000;5.39848000;2023-03-07T08:14:40;99773.06;;;2.53
7830;BMP180;3960;51.86894000;5.39848000;2023-03-07T08:17:08;99785.28;;;2.58
7830;BMP180;3960;51.86894000;5.39848000;2023-03-07T08:19:37;99796.78;;;2.65
7830;BMP180;3960;51.86894000;5.39848000;2023-03-07T08:22:22;99677.34;;;1.88
7830;BMP180;3960;51.86894000;5.39848000;2023-03-07T08:24:48;99740.50;;;2.30
7830;BMP180;3960;51.86894000;5.39848000;2023-03-07T08:27:15;99724.81;;;2.18
7830;BMP180;3960;51.86894000;5.39848000;2023-03-07T08:29:40;99741.97;;;2.21
7830;BMP180;3960;51.86894000;5.39848000;2023-03-07T08:32:08;99700.28;;;1.99
7830;BMP180;3960;51.86894000;5.39848000;2023-03-07T08:34:33;99790.28;;;2.63
7830;BMP180;3960;51.86894000;5.39848000;2023-03-07T08:37:01;99703.34;;;2.01
7830;BMP180;3960;51.86894000;5.39848000;2023-03-07T08:39:26;99696.50;;;2.04
7830;BMP180;3960;51.86894000;5.39848000;2023-03-07T08:41:57;99765.38;;;2.45
7830;BMP180;3960;51.86894000;5.39848000;2023-03-07T08:44:31;99797.16;;;2.67
7830;BMP180;3960;51.86894000;5.39848000;2023-03-07T08:46:57;99715.25;;;2.14
7830;BMP180;3960;51.86894000;5.39848000;2023-03-07T08:49:24;99782.63;;;2.61
7830;BMP180;3960;51.86894000;5.39848000;2023-03-07T08:51:50;99722.16;;;2.25
7830;BMP180;3960;51.86894000;5.39848000;2023-03-07T08:54:15;99693.09;;;2.10
7830;BMP180;3960;51.86894000;5.39848000;2023-03-07T08:56:43;99749.75;;;2.54
7830;BMP180;3960;51.86894000;5.39848000;2023-03-07T08:59:09;99753.59;;;2.60
7830;BMP180;3960;51.86894000;5.39848000;2023-03-07T09:01:36;99694.28;;;2.16
7830;BMP180;3960;51.86894000;5.39848000;2023-03-07T09:04:02;99764.69;;;2.65
7830;BMP180;3960;51.86894000;5.39848000;2023-03-07T09:06:29;99734.47;;;2.47
7830;BMP180;3960;51.86894000;5.39848000;2023-03-07T09:08:54;99727.59;;;2.43
7830;BMP180;3960;51.86894000;5.39848000;2023-03-07T09:11:20;99739.03;;;2.47
7830;BMP180;3960;51.86894000;5.39848000;2023-03-07T09:13:46;99743.66;;;2.50
7830;BMP180;3960;51.86894000;5.39848000;2023-03-07T09:16:11;99779.66;;;2.80
7830;BMP180;3960;51.86894000;5.39848000;2023-03-07T09:18:37;99798.75;;;2.86
7830;BMP180;3960;51.86894000;5.39848000;2023-03-07T09:21:04;99697.34;;;2.18
7830;BMP180;3960;51.86894000;5.39848000;2023-03-07T09:23:29;99693.50;;;2.19
7830;BMP180;3960;51.86894000;5.39848000;2023-03-07T09:26:01;99707.69;;;2.30
7830;BMP180;3960;51.86894000;5.39848000;2023-03-07T09:28:30;99755.50;;;2.56
7830;BMP180;3960;51.86894000;5.39848000;2023-03-07T09:30:55;99712.31;;;2.43
7830;BMP180;3960;51.86894000;5.39848000;2023-03-07T09:33:24;99764.72;;;2.72
7830;BMP180;3960;51.86894000;5.39848000;2023-03-07T09:35:49;99682.03;;;2.12
7830;BMP180;3960;51.86894000;5.39848000;2023-03-07T09:38:17;99814.09;;;2.99
7830;BMP180;3960;51.86894000;5.39848000;2023-03-07T09:40:45;99767.75;;;2.71
7830;BMP180;3960;51.86894000;5.39848000;2023-03-07T09:43:21;99760.16;;;2.76
7830;BMP180;3960;51.86894000;5.39848000;2023-03-07T09:46:08;99761.31;;;2.86
7830;BMP180;3960;51.86894000;5.39848000;2023-03-07T09:51:40;99674.97;;;2.61
7830;BMP180;3960;51.86894000;5.39848000;2023-03-07T09:54:14;99799.25;;;3.43
7830;BMP180;3960;51.86894000;5.39848000;2023-03-07T09:56:55;99764.47;;;3.26
7830;BMP180;3960;51.86894000;5.39848000;2023-03-07T09:59:24;99779.38;;;3.48
7830;BMP180;3960;51.86894000;5.39848000;2023-03-07T10:02:07;99695.25;;;3.00
7830;BMP180;3960;51.86894000;5.39848000;2023-03-07T10:07:32;99804.25;;;3.79
7830;BMP180;3960;51.86894000;5.39848000;2023-03-07T10:10:10;99706.38;;;3.16
7830;BMP180;3960;51.86894000;5.39848000;2023-03-07T10:18:11;99744.19;;;3.73
7830;BMP180;3960;51.86894000;5.39848000;2023-03-07T10:23:32;99720.88;;;3.77
7830;BMP180;3960;51.86894000;5.39848000;2023-03-07T10:26:09;99765.56;;;4.12
7830;BMP180;3960;51.86894000;5.39848000;2023-03-07T10:28:41;99745.28;;;4.11
7830;BMP180;3960;51.86894000;5.39848000;2023-03-07T10:31:18;99772.03;;;4.35
7830;BMP180;3960;51.86894000;5.39848000;2023-03-07T10:33:47;99784.19;;;4.57
7830;BMP180;3960;51.86894000;5.39848000;2023-03-07T10:36:31;99799.78;;;4.83
7830;BMP180;3960;51.86894000;5.39848000;2023-03-07T10:39:15;99771.09;;;4.80
7830;BMP180;3960;51.86894000;5.39848000;2023-03-07T10:41:40;99708.38;;;4.53
7830;BMP180;3960;51.86894000;5.39848000;2023-03-07T10:44:14;99780.91;;;5.03
7830;BMP180;3960;51.86894000;5.39848000;2023-03-07T10:46:42;99767.59;;;4.83
7830;BMP180;3960;51.86894000;5.39848000;2023-03-07T10:49:14;99726.03;;;4.43
7830;BMP180;3960;51.86894000;5.39848000;2023-03-07T10:52:00;99811.31;;;4.83
7830;BMP180;3960;51.86894000;5.39848000;2023-03-07T10:54:32;99783.06;;;4.51
7830;BMP180;3960;51.86894000;5.39848000;2023-03-07T10:57:03;99796.13;;;4.45
7830;BMP180;3960;51.86894000;5.39848000;2023-03-07T10:59:29;99790.78;;;4.38
7830;BMP180;3960;51.86894000;5.39848000;2023-03-07T11:02:00;99755.97;;;4.21
7830;BMP180;3960;51.86894000;5.39848000;2023-03-07T11:04:43;99754.09;;;4.08
7830;BMP180;3960;51.86894000;5.39848000;2023-03-07T11:07:42;99811.84;;;4.36
7830;BMP180;3960;51.86894000;5.39848000;2023-03-07T11:12:49;99798.84;;;4.25
7830;BMP180;3960;51.86894000;5.39848000;2023-03-07T11:15:44;99743.78;;;4.03
7830;BMP180;3960;51.86894000;5.39848000;2023-03-07T11:20:56;99804.19;;;4.42
7830;BMP180;3960;51.86894000;5.39848000;2023-03-07T11:23:26;99769.00;;;4.16
7830;BMP180;3960;51.86894000;5.39848000;2023-03-07T11:25:54;99811.03;;;4.50
7830;BMP180;3960;51.86894000;5.39848000;2023-03-07T11:30:52;99768.59;;;4.21
7830;BMP180;3960;51.86894000;5.39848000;2023-03-07T11:38:58;99803.69;;;4.71
7830;BMP180;3960;51.86894000;5.39848000;2023-03-07T11:41:30;99736.78;;;4.36
7830;BMP180;3960;51.86894000;5.39848000;2023-03-07T11:44:34;99794.44;;;4.79
7830;BMP180;3960;51.86894000;5.39848000;2023-03-07T11:55:35;99797.91;;;4.76
7830;BMP180;3960;51.86894000;5.39848000;2023-03-07T11:58:30;99798.66;;;4.80
7830;BMP180;3960;51.86894000;5.39848000;2023-03-07T12:10:21;99754.06;;;4.25
7830;BMP180;3960;51.86894000;5.39848000;2023-03-07T12:29:30;99837.47;;;4.48
7830;BMP180;3960;51.86894000;5.39848000;2023-03-07T12:35:31;99835.53;;;4.45
7830;BMP180;3960;51.86894000;5.39848000;2023-03-07T12:38:53;99830.56;;;4.50
7830;BMP180;3960;51.86894000;5.39848000;2023-03-07T12:44:01;99738.75;;;4.26
7830;BMP180;3960;51.86894000;5.39848000;2023-03-07T12:52:29;99786.78;;;4.78
7830;BMP180;3960;51.86894000;5.39848000;2023-03-07T12:55:05;99779.94;;;4.66
7830;BMP180;3960;51.86894000;5.39848000;2023-03-07T12:57:36;99776.13;;;4.64
7830;BMP180;3960;51.86894000;5.39848000;2023-03-07T13:00:07;99740.22;;;4.40
7830;BMP180;3960;51.86894000;5.39848000;2023-03-07T13:02:40;99734.91;;;4.33
7830;BMP180;3960;51.86894000;5.39848000;2023-03-07T13:05:17;99799.09;;;4.68
7830;BMP180;3960;51.86894000;5.39848000;2023-03-07T13:07:43;99783.47;;;4.49
7830;BMP180;3960;51.86894000;5.39848000;2023-03-07T13:10:16;99833.97;;;4.65
7830;BMP180;3960;51.86894000;5.39848000;2023-03-07T13:12:54;99763.31;;;3.96
7830;BMP180;3960;51.86894000;5.39848000;2023-03-07T13:27:57;99748.78;;;3.28
7830;BMP180;3960;51.86894000;5.39848000;2023-03-07T13:30:29;99783.59;;;3.59
7830;BMP180;3960;51.86894000;5.39848000;2023-03-07T13:40:55;99830.66;;;3.84
7830;BMP180;3960;51.86894000;5.39848000;2023-03-07T13:46:03;99757.19;;;3.23
7830;BMP180;3960;51.86894000;5.39848000;2023-03-07T13:53:41;99774.38;;;3.15
7830;BMP180;3960;51.86894000;5.39848000;2023-03-07T13:56:28;99821.06;;;3.45
7830;BMP180;3960;51.86894000;5.39848000;2023-03-07T14:06:47;99868.50;;;3.62
7830;BMP180;3960;51.86894000;5.39848000;2023-03-07T14:09:27;99785.44;;;3.03
7830;BMP180;3960;51.86894000;5.39848000;2023-03-07T14:21:02;99879.19;;;3.45
7830;BMP180;3960;51.86894000;5.39848000;2023-03-07T14:24:12;99886.44;;;3.48
7830;BMP180;3960;51.86894000;5.39848000;2023-03-07T14:26:49;99834.78;;;3.23
7830;BMP180;3960;51.86894000;5.39848000;2023-03-07T14:29:24;99789.63;;;2.93
7830;BMP180;3960;51.86894000;5.39848000;2023-03-07T14:31:52;99814.13;;;3.20
7830;BMP180;3960;51.86894000;5.39848000;2023-03-07T14:34:27;99800.38;;;3.21
7830;BMP180;3960;51.86894000;5.39848000;2023-03-07T14:37:01;99876.53;;;3.79
7830;BMP180;3960;51.86894000;5.39848000;2023-03-07T14:43:00;99883.44;;;3.87
7830;BMP180;3960;51.86894000;5.39848000;2023-03-07T14:48:32;99876.56;;;3.90
7830;BMP180;3960;51.86894000;5.39848000;2023-03-07T14:51:15;99861.25;;;3.76
7830;BMP180;3960;51.86894000;5.39848000;2023-03-07T14:53:41;99856.66;;;3.77
7830;BMP180;3960;51.86894000;5.39848000;2023-03-07T14:56:08;99882.69;;;3.90
7830;BMP180;3960;51.86894000;5.39848000;2023-03-07T14:58:36;99853.97;;;3.77
7830;BMP180;3960;51.86894000;5.39848000;2023-03-07T15:01:15;99862.78;;;3.77
7830;BMP180;3960;51.86894000;5.39848000;2023-03-07T15:03:49;99871.59;;;3.85
7830;BMP180;3960;51.86894000;5.39848000;2023-03-07T15:06:18;99863.94;;;3.76
7830;BMP180;3960;51.86894000;5.39848000;2023-03-07T15:08:46;99857.44;;;3.77